De Sui — BSFU — position and weather

sailwx.info

Track history (hours):
 
Tides and Currents Weather Stations Pressure Air Temp Water Temp Dewpoint Dewpoint Depression Visibility Wind Speed Wind Dir Waves Ship Positions

De Sui

Last reported at 2014-Nov-01 13:33 UTC. Time now 2014-Nov-01 14:03 UTC.
Position N 22°08' E 113°49'.

Length 65 m; draft 5 m.

Type: Tug. MMSI: 413070000.

Date/timePositionNaut miles runAvg speedWind from/ knotsBaromVisibWave heightAir tempDewpointWater temp
2014-Nov-01 13:33N 22°08' E 113°49'0 0.0
2014-Nov-01 12:33N 22°08' E 113°49'0 0.0
2014-Nov-01 11:33N 22°08' E 113°49'0 0.0
2014-Nov-01 10:33N 22°08' E 113°49'0 0.0
2014-Nov-01 09:33N 22°08' E 113°49'0 0.0
2014-Nov-01 08:33N 22°08' E 113°49'0 0.0
2014-Nov-01 07:33N 22°08' E 113°49'1 0.1
2014-Oct-31 21:33N 22°09' E 113°48'0 0.3
2014-Oct-31 20:33N 22°09' E 113°48'5 5.0
2014-Oct-31 19:33N 22°06' E 113°53'17 5.4
2014-Oct-31 16:24N 22°18' E 114°06'0 0.0
2014-Oct-31 14:20N 22°18' E 114°06'2 0.3
2014-Oct-31 06:20N 22°20' E 114°05'  
2014-Oct-26 09:33N 22°19' E 114°06'11 5.4
2014-Oct-26 07:30N 22°22' E 113°55'7 7.3
2014-Oct-26 06:33N 22°28' E 113°52'0 0.1
2014-Oct-26 04:18N 22°28' E 113°52'0 0.0
2014-Oct-26 03:15N 22°28' E 113°52'0 0.0
2014-Oct-26 02:30N 22°28' E 113°52'0 0.0
2014-Oct-26 01:25N 22°28' E 113°52'0 0.0
2014-Oct-26 00:32N 22°28' E 113°52'0 0.1
2014-Oct-25 23:33N 22°28' E 113°52'0 0.0
2014-Oct-25 22:32N 22°28' E 113°52'0 0.0
2014-Oct-25 21:18N 22°28' E 113°52'0 0.0
2014-Oct-25 20:33N 22°28' E 113°52'0 0.0
2014-Oct-25 19:17N 22°28' E 113°52'0 0.0
2014-Oct-25 18:33N 22°28' E 113°52'0 0.0
2014-Oct-25 17:33N 22°28' E 113°52'0 0.1
2014-Oct-25 16:33N 22°28' E 113°52'0 0.0
2014-Oct-25 15:30N 22°28' E 113°52'0 0.0
2014-Oct-25 14:29N 22°28' E 113°52'0 0.0
2014-Oct-25 13:28N 22°28' E 113°52'0 0.0
2014-Oct-25 12:33N 22°28' E 113°52'0 0.0
2014-Oct-25 11:32N 22°28' E 113°52'6 5.7
2014-Oct-25 10:33N 22°33' E 113°48'20 2.1
2014-Oct-25 01:14N 22°48' E 113°35'4 5.5
2014-Oct-25 00:30N 22°52' E 113°33'1 0.7
2014-Oct-24 23:32N 22°52' E 113°33'0 0.0
2014-Oct-24 22:26N 22°52' E 113°33'0 0.0
2014-Oct-24 21:26N 22°52' E 113°33'0 0.0
2014-Oct-24 19:26N 22°52' E 113°33'0 0.0
2014-Oct-24 18:26N 22°52' E 113°33'0 0.0
2014-Oct-24 17:26N 22°52' E 113°33'0 0.0
2014-Oct-24 16:32N 22°52' E 113°33'0 0.0
2014-Oct-24 14:32N 22°52' E 113°33'0 0.0
2014-Oct-24 12:14N 22°52' E 113°33'0 0.0
2014-Oct-24 11:08N 22°52' E 113°33'0 0.0
2014-Oct-24 10:26N 22°52' E 113°33'0 0.0
2014-Oct-24 09:26N 22°52' E 113°33'0 0.0
2014-Oct-24 08:08N 22°52' E 113°33'0 0.0
2014-Oct-24 07:14N 22°52' E 113°33'0 0.0
2014-Oct-24 05:20N 22°52' E 113°33'0 0.0
2014-Oct-24 04:20N 22°52' E 113°33'0 0.0
2014-Oct-24 02:26N 22°52' E 113°33'0 0.0
2014-Oct-24 01:14N 22°52' E 113°33'0 0.0
2014-Oct-24 00:32N 22°52' E 113°33'0 0.0
2014-Oct-23 23:14N 22°52' E 113°33'0 0.0
2014-Oct-23 22:32N 22°52' E 113°33'0 0.0
2014-Oct-23 21:32N 22°52' E 113°33'0 0.0
2014-Oct-23 20:32N 22°52' E 113°33'0 0.0
2014-Oct-23 18:20N 22°52' E 113°33'0 0.0
2014-Oct-23 17:32N 22°52' E 113°33'0 0.0
2014-Oct-23 16:32N 22°52' E 113°33'0 0.0
2014-Oct-23 15:26N 22°52' E 113°33'0 0.0
2014-Oct-23 14:07N 22°52' E 113°33'0 0.0
2014-Oct-23 13:31N 22°52' E 113°33'0 0.0
2014-Oct-23 12:31N 22°52' E 113°33'0 0.0
2014-Oct-23 11:13N 22°52' E 113°33'0 0.0
2014-Oct-23 10:25N 22°52' E 113°33'0 0.0
2014-Oct-23 09:31N 22°52' E 113°33'0 0.0
2014-Oct-23 08:31N 22°52' E 113°33'0 0.0
2014-Oct-23 07:19N 22°52' E 113°33'0 0.0
2014-Oct-23 06:31N 22°52' E 113°33'0 0.0
2014-Oct-23 05:31N 22°52' E 113°33'0 0.0
2014-Oct-23 04:31N 22°52' E 113°33'0 0.0
2014-Oct-23 03:19N 22°52' E 113°33'0 0.1
2014-Oct-23 02:07N 22°52' E 113°33'0 0.0
2014-Oct-23 00:19N 22°52' E 113°33'0 0.0
2014-Oct-22 22:31N 22°52' E 113°33'0 0.0
2014-Oct-22 21:31N 22°52' E 113°33'0 0.0
2014-Oct-22 20:25N 22°52' E 113°33'0 0.0
2014-Oct-22 19:31N 22°52' E 113°33'0 0.0
2014-Oct-22 18:31N 22°52' E 113°33'0 0.0
2014-Oct-22 17:31N 22°52' E 113°33'0 0.0
2014-Oct-22 16:31N 22°52' E 113°33'0 0.0
2014-Oct-22 15:19N 22°52' E 113°33'  
Track history (hours):
 
Tides and Currents Weather Stations Pressure Air Temp Water Temp Dewpoint Dewpoint Depression Visibility Wind Speed Wind Dir Waves Ship Positions

De Sui

Last reported at 2014-Nov-01 13:33 UTC. Time now 2014-Nov-01 14:03 UTC.
Position N 22°08' E 113°49'.

Length 65 m; draft 5 m.

Type: Tug. MMSI: 413070000.

Date/timePositionNaut miles runAvg speedWind from/ knotsBaromVisibWave heightAir tempDewpointWater temp
2014-Nov-01 13:33N 22°08' E 113°49'0 0.0
2014-Nov-01 12:33N 22°08' E 113°49'0 0.0
2014-Nov-01 11:33N 22°08' E 113°49'0 0.0
2014-Nov-01 10:33N 22°08' E 113°49'0 0.0
2014-Nov-01 09:33N 22°08' E 113°49'0 0.0
2014-Nov-01 08:33N 22°08' E 113°49'0 0.0
2014-Nov-01 07:33N 22°08' E 113°49'1 0.1
2014-Oct-31 21:33N 22°09' E 113°48'0 0.3
2014-Oct-31 20:33N 22°09' E 113°48'5 5.0
2014-Oct-31 19:33N 22°06' E 113°53'17 5.4
2014-Oct-31 16:24N 22°18' E 114°06'0 0.0
2014-Oct-31 14:20N 22°18' E 114°06'2 0.3
2014-Oct-31 06:20N 22°20' E 114°05'  
2014-Oct-26 09:33N 22°19' E 114°06'11 5.4
2014-Oct-26 07:30N 22°22' E 113°55'7 7.3
2014-Oct-26 06:33N 22°28' E 113°52'0 0.1
2014-Oct-26 04:18N 22°28' E 113°52'0 0.0
2014-Oct-26 03:15N 22°28' E 113°52'0 0.0
2014-Oct-26 02:30N 22°28' E 113°52'0 0.0
2014-Oct-26 01:25N 22°28' E 113°52'0 0.0
2014-Oct-26 00:32N 22°28' E 113°52'0 0.1
2014-Oct-25 23:33N 22°28' E 113°52'0 0.0
2014-Oct-25 22:32N 22°28' E 113°52'0 0.0
2014-Oct-25 21:18N 22°28' E 113°52'0 0.0
2014-Oct-25 20:33N 22°28' E 113°52'0 0.0
2014-Oct-25 19:17N 22°28' E 113°52'0 0.0
2014-Oct-25 18:33N 22°28' E 113°52'0 0.0
2014-Oct-25 17:33N 22°28' E 113°52'0 0.1
2014-Oct-25 16:33N 22°28' E 113°52'0 0.0
2014-Oct-25 15:30N 22°28' E 113°52'0 0.0
2014-Oct-25 14:29N 22°28' E 113°52'0 0.0
2014-Oct-25 13:28N 22°28' E 113°52'0 0.0
2014-Oct-25 12:33N 22°28' E 113°52'0 0.0
2014-Oct-25 11:32N 22°28' E 113°52'6 5.7
2014-Oct-25 10:33N 22°33' E 113°48'20 2.1
2014-Oct-25 01:14N 22°48' E 113°35'4 5.5
2014-Oct-25 00:30N 22°52' E 113°33'1 0.7
2014-Oct-24 23:32N 22°52' E 113°33'0 0.0
2014-Oct-24 22:26N 22°52' E 113°33'0 0.0
2014-Oct-24 21:26N 22°52' E 113°33'0 0.0
2014-Oct-24 19:26N 22°52' E 113°33'0 0.0
2014-Oct-24 18:26N 22°52' E 113°33'0 0.0
2014-Oct-24 17:26N 22°52' E 113°33'0 0.0
2014-Oct-24 16:32N 22°52' E 113°33'0 0.0
2014-Oct-24 14:32N 22°52' E 113°33'0 0.0
2014-Oct-24 12:14N 22°52' E 113°33'0 0.0
2014-Oct-24 11:08N 22°52' E 113°33'0 0.0
2014-Oct-24 10:26N 22°52' E 113°33'0 0.0
2014-Oct-24 09:26N 22°52' E 113°33'0 0.0
2014-Oct-24 08:08N 22°52' E 113°33'0 0.0
2014-Oct-24 07:14N 22°52' E 113°33'0 0.0
2014-Oct-24 05:20N 22°52' E 113°33'0 0.0
2014-Oct-24 04:20N 22°52' E 113°33'0 0.0
2014-Oct-24 02:26N 22°52' E 113°33'0 0.0
2014-Oct-24 01:14N 22°52' E 113°33'0 0.0
2014-Oct-24 00:32N 22°52' E 113°33'0 0.0
2014-Oct-23 23:14N 22°52' E 113°33'0 0.0
2014-Oct-23 22:32N 22°52' E 113°33'0 0.0
2014-Oct-23 21:32N 22°52' E 113°33'0 0.0
2014-Oct-23 20:32N 22°52' E 113°33'0 0.0
2014-Oct-23 18:20N 22°52' E 113°33'0 0.0
2014-Oct-23 17:32N 22°52' E 113°33'0 0.0
2014-Oct-23 16:32N 22°52' E 113°33'0 0.0
2014-Oct-23 15:26N 22°52' E 113°33'0 0.0
2014-Oct-23 14:07N 22°52' E 113°33'0 0.0
2014-Oct-23 13:31N 22°52' E 113°33'0 0.0
2014-Oct-23 12:31N 22°52' E 113°33'0 0.0
2014-Oct-23 11:13N 22°52' E 113°33'0 0.0
2014-Oct-23 10:25N 22°52' E 113°33'0 0.0
2014-Oct-23 09:31N 22°52' E 113°33'0 0.0
2014-Oct-23 08:31N 22°52' E 113°33'0 0.0
2014-Oct-23 07:19N 22°52' E 113°33'0 0.0
2014-Oct-23 06:31N 22°52' E 113°33'0 0.0
2014-Oct-23 05:31N 22°52' E 113°33'0 0.0
2014-Oct-23 04:31N 22°52' E 113°33'0 0.0
2014-Oct-23 03:19N 22°52' E 113°33'0 0.1
2014-Oct-23 02:07N 22°52' E 113°33'0 0.0
2014-Oct-23 00:19N 22°52' E 113°33'0 0.0
2014-Oct-22 22:31N 22°52' E 113°33'0 0.0
2014-Oct-22 21:31N 22°52' E 113°33'0 0.0
2014-Oct-22 20:25N 22°52' E 113°33'0 0.0
2014-Oct-22 19:31N 22°52' E 113°33'0 0.0
2014-Oct-22 18:31N 22°52' E 113°33'0 0.0
2014-Oct-22 17:31N 22°52' E 113°33'0 0.0
2014-Oct-22 16:31N 22°52' E 113°33'0 0.0
2014-Oct-22 15:19N 22°52' E 113°33'  

Dump ship's entire track history